メインページ
METAR-TAF:

METAR-TAF

空港 :

グアテマラシティ, グアテマラ

ラ・アウロラ国際空港

緯度: 14-35N, 経度: 090-31W, 海抜: 1489m

現時点の気象観測

当レポートは1時間6分前の10:00(UTC)に作成
無風
気温 18°C
湿度 94%
気圧 1024 hPa
視程10km以上
高度600ftの雲はほとんどない
高度9000ftの千切れ雲あり

METAR: MGGT 201000Z 00000KT 9999 FEW006 BKN090 18/17 Q1024 A3024

時間: 05:06 (11:06 UTC)

予報

当レポートは6時間6分前の05:00(UTC)に作成
予報は20日の 06時(UTC)から 21日の 06時(UTC)まで有効
の風 6kt
視程10km以上
高度1400ftの雲は散在している
高度8000ftの千切れ雲あり
20日の 06時(UTC)から 20日の 12時(UTC)まで一時的に
変向風 3kt
視程: 6000m
高度1200ftの千切れ雲あり
雨, 霧雨
20日の 15時(UTC)から 20日の 17時(UTC)まで徐々に
の風 6kt
高度1800ftの雲は散在している
20日の 20時(UTC)から 21日の 04時(UTC)まで一時的に
の風 8kt
視程: 8000m
高度2000ftの雲は散在している, 塔状積雲.
高度2500ftの雲はほとんどない, 積乱雲.
近辺で激しい雷雨, 雨
21日の 01時(UTC)から 21日の 03時(UTC)まで徐々に
高度1600ftの千切れ雲あり

TAF: MGGT 200500Z 2006/2106 18006KT 9999 SCT014 BKN080 TX26/2020Z TN18/2012Z TEMPO 2006/2012 VRB03KT 6000 RADZ BKN012 BECMG 2015/2017 36006KT SCT018 TEMPO 2020/2104 18008KT 8000 VCTSRA SCT020TCU FEW025CB BECMG 2101/2103 BKN016

4,000以上の空港の気象観測と天気予報(METAR報とTAF報)

利用可能な観測所は地図上に黄色い丸と赤い丸で示す。

丸の上にカーソルを重ねると観測所名を参照できる。

次にクリックすると気象観測と天気予報を参照できる。

マップの切り替え:黒色「×」印の緑ボタンをクリックして拡大、「-」印の緑ボタンをクリックして縮小、緑色の三角印をクリックして隣りの地図に切り替え


METAR-TAF: